sensor_id;sensor_type;location;lat;lon;timestamp;P1;durP1;ratioP1;P2;durP2;ratioP2
43114;SDS011;28727;50.068;14.452;2023-11-21T00:03:57;4.80;;;1.92;;
43114;SDS011;28727;50.068;14.452;2023-11-21T00:06:29;6.07;;;2.53;;
43114;SDS011;28727;50.068;14.452;2023-11-21T00:09:01;7.45;;;2.30;;
43114;SDS011;28727;50.068;14.452;2023-11-21T00:11:34;5.75;;;2.13;;
43114;SDS011;28727;50.068;14.452;2023-11-21T00:14:05;4.53;;;2.20;;
43114;SDS011;28727;50.068;14.452;2023-11-21T00:16:37;5.68;;;2.13;;
43114;SDS011;28727;50.068;14.452;2023-11-21T00:19:09;5.00;;;2.42;;
43114;SDS011;28727;50.068;14.452;2023-11-21T00:21:43;4.63;;;2.50;;
43114;SDS011;28727;50.068;14.452;2023-11-21T00:24:16;5.28;;;2.75;;
43114;SDS011;28727;50.068;14.452;2023-11-21T00:26:48;6.25;;;2.78;;
43114;SDS011;28727;50.068;14.452;2023-11-21T00:29:20;4.47;;;2.53;;
43114;SDS011;28727;50.068;14.452;2023-11-21T00:31:55;6.90;;;3.08;;
43114;SDS011;28727;50.068;14.452;2023-11-21T00:34:27;5.68;;;3.13;;
43114;SDS011;28727;50.068;14.452;2023-11-21T00:36:59;8.00;;;2.70;;
43114;SDS011;28727;50.068;14.452;2023-11-21T00:39:31;7.18;;;2.78;;
43114;SDS011;28727;50.068;14.452;2023-11-21T00:42:04;5.25;;;2.70;;
43114;SDS011;28727;50.068;14.452;2023-11-21T00:44:38;6.95;;;2.60;;
43114;SDS011;28727;50.068;14.452;2023-11-21T00:47:10;7.00;;;2.63;;
43114;SDS011;28727;50.068;14.452;2023-11-21T00:49:44;6.03;;;2.45;;
43114;SDS011;28727;50.068;14.452;2023-11-21T00:52:16;5.57;;;2.47;;
43114;SDS011;28727;50.068;14.452;2023-11-21T00:54:48;4.53;;;2.40;;
43114;SDS011;28727;50.068;14.452;2023-11-21T00:57:23;6.13;;;2.70;;
43114;SDS011;28727;50.068;14.452;2023-11-21T01:02:27;6.32;;;2.38;;
43114;SDS011;28727;50.068;14.452;2023-11-21T01:04:59;6.15;;;2.45;;
43114;SDS011;28727;50.068;14.452;2023-11-21T01:07:30;5.68;;;2.90;;
43114;SDS011;28727;50.068;14.452;2023-11-21T01:10:03;6.13;;;2.55;;
43114;SDS011;28727;50.068;14.452;2023-11-21T01:12:39;6.45;;;2.83;;
43114;SDS011;28727;50.068;14.452;2023-11-21T01:15:10;4.65;;;2.50;;
43114;SDS011;28727;50.068;14.452;2023-11-21T01:17:44;5.35;;;2.15;;
43114;SDS011;28727;50.068;14.452;2023-11-21T01:20:16;4.47;;;1.98;;
43114;SDS011;28727;50.068;14.452;2023-11-21T01:22:50;11.38;;;2.97;;
43114;SDS011;28727;50.068;14.452;2023-11-21T01:25:23;5.40;;;2.38;;
43114;SDS011;28727;50.068;14.452;2023-11-21T01:27:55;4.45;;;2.00;;
43114;SDS011;28727;50.068;14.452;2023-11-21T01:30:27;6.28;;;2.35;;
43114;SDS011;28727;50.068;14.452;2023-11-21T01:33:01;5.28;;;2.25;;
43114;SDS011;28727;50.068;14.452;2023-11-21T01:35:34;3.53;;;1.92;;
43114;SDS011;28727;50.068;14.452;2023-11-21T01:38:09;7.10;;;2.22;;
43114;SDS011;28727;50.068;14.452;2023-11-21T01:40:42;8.27;;;2.53;;
43114;SDS011;28727;50.068;14.452;2023-11-21T01:43:14;4.60;;;2.00;;
43114;SDS011;28727;50.068;14.452;2023-11-21T01:45:46;3.92;;;1.67;;
43114;SDS011;28727;50.068;14.452;2023-11-21T01:48:21;5.57;;;2.05;;
43114;SDS011;28727;50.068;14.452;2023-11-21T01:50:54;4.53;;;2.13;;
43114;SDS011;28727;50.068;14.452;2023-11-21T01:53:26;4.18;;;2.15;;
43114;SDS011;28727;50.068;14.452;2023-11-21T01:55:59;4.53;;;1.90;;
43114;SDS011;28727;50.068;14.452;2023-11-21T01:58:31;5.80;;;2.10;;
43114;SDS011;28727;50.068;14.452;2023-11-21T02:01:03;4.35;;;2.00;;
43114;SDS011;28727;50.068;14.452;2023-11-21T02:06:12;6.28;;;2.08;;
43114;SDS011;28727;50.068;14.452;2023-11-21T02:08:44;3.95;;;1.83;;
43114;SDS011;28727;50.068;14.452;2023-11-21T02:11:16;3.88;;;2.08;;
43114;SDS011;28727;50.068;14.452;2023-11-21T02:13:51;7.75;;;2.20;;
43114;SDS011;28727;50.068;14.452;2023-11-21T02:16:25;8.23;;;2.45;;
43114;SDS011;28727;50.068;14.452;2023-11-21T02:18:58;4.88;;;2.10;;
43114;SDS011;28727;50.068;14.452;2023-11-21T02:21:37;6.50;;;3.03;;
43114;SDS011;28727;50.068;14.452;2023-11-21T02:24:21;5.25;;;2.33;;
43114;SDS011;28727;50.068;14.452;2023-11-21T02:26:53;5.28;;;2.03;;
43114;SDS011;28727;50.068;14.452;2023-11-21T02:29:26;3.92;;;1.85;;
43114;SDS011;28727;50.068;14.452;2023-11-21T02:31:59;4.65;;;2.08;;
43114;SDS011;28727;50.068;14.452;2023-11-21T02:34:31;3.95;;;1.98;;
43114;SDS011;28727;50.068;14.452;2023-11-21T02:37:03;4.03;;;2.08;;
43114;SDS011;28727;50.068;14.452;2023-11-21T02:39:36;6.40;;;2.22;;
43114;SDS011;28727;50.068;14.452;2023-11-21T02:42:09;4.07;;;2.03;;
43114;SDS011;28727;50.068;14.452;2023-11-21T02:44:41;3.50;;;1.98;;
43114;SDS011;28727;50.068;14.452;2023-11-21T02:47:23;5.97;;;2.55;;
43114;SDS011;28727;50.068;14.452;2023-11-21T02:49:54;4.50;;;2.00;;
43114;SDS011;28727;50.068;14.452;2023-11-21T02:52:28;4.85;;;2.10;;
43114;SDS011;28727;50.068;14.452;2023-11-21T02:55:01;5.43;;;2.35;;
43114;SDS011;28727;50.068;14.452;2023-11-21T02:57:36;5.18;;;2.28;;
43114;SDS011;28727;50.068;14.452;2023-11-21T03:00:08;6.05;;;2.10;;
43114;SDS011;28727;50.068;14.452;2023-11-21T03:02:45;4.70;;;2.15;;
43114;SDS011;28727;50.068;14.452;2023-11-21T03:05:19;6.10;;;2.15;;
43114;SDS011;28727;50.068;14.452;2023-11-21T03:07:52;6.32;;;2.40;;
43114;SDS011;28727;50.068;14.452;2023-11-21T03:10:24;8.23;;;2.40;;
43114;SDS011;28727;50.068;14.452;2023-11-21T03:12:56;5.13;;;1.90;;
43114;SDS011;28727;50.068;14.452;2023-11-21T03:15:29;6.10;;;2.30;;
43114;SDS011;28727;50.068;14.452;2023-11-21T03:18:03;3.45;;;2.08;;
43114;SDS011;28727;50.068;14.452;2023-11-21T03:20:36;5.88;;;2.22;;
43114;SDS011;28727;50.068;14.452;2023-11-21T03:23:14;4.32;;;1.95;;
43114;SDS011;28727;50.068;14.452;2023-11-21T03:25:49;7.18;;;2.20;;
43114;SDS011;28727;50.068;14.452;2023-11-21T03:28:21;4.88;;;2.13;;
43114;SDS011;28727;50.068;14.452;2023-11-21T03:30:54;6.07;;;2.08;;
43114;SDS011;28727;50.068;14.452;2023-11-21T03:33:26;7.55;;;3.55;;
43114;SDS011;28727;50.068;14.452;2023-11-21T03:36:01;5.63;;;2.35;;
43114;SDS011;28727;50.068;14.452;2023-11-21T03:38:33;5.95;;;2.28;;
43114;SDS011;28727;50.068;14.452;2023-11-21T03:41:05;4.50;;;2.10;;
43114;SDS011;28727;50.068;14.452;2023-11-21T03:43:37;5.18;;;2.08;;
43114;SDS011;28727;50.068;14.452;2023-11-21T03:46:12;4.53;;;2.05;;
43114;SDS011;28727;50.068;14.452;2023-11-21T03:48:44;3.95;;;2.13;;
43114;SDS011;28727;50.068;14.452;2023-11-21T03:51:19;5.15;;;1.95;;
43114;SDS011;28727;50.068;14.452;2023-11-21T03:53:50;6.45;;;2.10;;
43114;SDS011;28727;50.068;14.452;2023-11-21T03:56:23;6.13;;;2.03;;
43114;SDS011;28727;50.068;14.452;2023-11-21T03:58:55;5.13;;;2.20;;
43114;SDS011;28727;50.068;14.452;2023-11-21T04:01:27;5.82;;;2.65;;
43114;SDS011;28727;50.068;14.452;2023-11-21T04:03:59;6.72;;;2.47;;
43114;SDS011;28727;50.068;14.452;2023-11-21T04:06:37;4.03;;;2.03;;
43114;SDS011;28727;50.068;14.452;2023-11-21T04:09:12;6.20;;;2.60;;
43114;SDS011;28727;50.068;14.452;2023-11-21T04:11:44;5.13;;;2.20;;
43114;SDS011;28727;50.068;14.452;2023-11-21T04:14:18;3.85;;;2.10;;
43114;SDS011;28727;50.068;14.452;2023-11-21T04:16:51;6.85;;;1.98;;
43114;SDS011;28727;50.068;14.452;2023-11-21T04:19:23;4.85;;;1.95;;
43114;SDS011;28727;50.068;14.452;2023-11-21T04:21:55;5.72;;;2.55;;
43114;SDS011;28727;50.068;14.452;2023-11-21T04:24:26;4.60;;;2.00;;
43114;SDS011;28727;50.068;14.452;2023-11-21T04:27:00;4.80;;;2.20;;
43114;SDS011;28727;50.068;14.452;2023-11-21T04:29:34;5.50;;;2.20;;
43114;SDS011;28727;50.068;14.452;2023-11-21T04:32:06;5.13;;;2.25;;
43114;SDS011;28727;50.068;14.452;2023-11-21T04:34:39;5.55;;;2.40;;
43114;SDS011;28727;50.068;14.452;2023-11-21T04:37:11;6.35;;;2.20;;
43114;SDS011;28727;50.068;14.452;2023-11-21T04:39:43;7.05;;;2.10;;
43114;SDS011;28727;50.068;14.452;2023-11-21T04:42:15;5.80;;;2.38;;
43114;SDS011;28727;50.068;14.452;2023-11-21T04:44:47;5.63;;;2.17;;
43114;SDS011;28727;50.068;14.452;2023-11-21T04:47:20;3.60;;;1.98;;
43114;SDS011;28727;50.068;14.452;2023-11-21T04:49:54;7.00;;;2.65;;
43114;SDS011;28727;50.068;14.452;2023-11-21T04:52:26;5.32;;;2.10;;
43114;SDS011;28727;50.068;14.452;2023-11-21T04:54:58;4.32;;;1.90;;
43114;SDS011;28727;50.068;14.452;2023-11-21T04:57:32;7.15;;;2.20;;
43114;SDS011;28727;50.068;14.452;2023-11-21T05:00:04;5.55;;;2.53;;
43114;SDS011;28727;50.068;14.452;2023-11-21T05:02:37;4.65;;;2.17;;
43114;SDS011;28727;50.068;14.452;2023-11-21T05:05:13;5.35;;;2.30;;
43114;SDS011;28727;50.068;14.452;2023-11-21T05:07:46;5.30;;;2.00;;
43114;SDS011;28727;50.068;14.452;2023-11-21T05:10:18;5.25;;;2.13;;
43114;SDS011;28727;50.068;14.452;2023-11-21T05:12:50;4.50;;;1.95;;
43114;SDS011;28727;50.068;14.452;2023-11-21T05:15:25;6.90;;;2.13;;
43114;SDS011;28727;50.068;14.452;2023-11-21T05:17:59;8.38;;;2.38;;
43114;SDS011;28727;50.068;14.452;2023-11-21T05:20:31;6.05;;;2.42;;
43114;SDS011;28727;50.068;14.452;2023-11-21T05:23:04;4.40;;;2.85;;
43114;SDS011;28727;50.068;14.452;2023-11-21T05:28:13;6.28;;;2.80;;
43114;SDS011;28727;50.068;14.452;2023-11-21T05:30:44;6.25;;;2.15;;
43114;SDS011;28727;50.068;14.452;2023-11-21T05:33:16;7.00;;;2.63;;
43114;SDS011;28727;50.068;14.452;2023-11-21T05:35:49;4.63;;;2.30;;
43114;SDS011;28727;50.068;14.452;2023-11-21T05:38:20;7.03;;;2.70;;
43114;SDS011;28727;50.068;14.452;2023-11-21T05:40:53;6.70;;;3.03;;
43114;SDS011;28727;50.068;14.452;2023-11-21T05:43:25;9.63;;;3.10;;
43114;SDS011;28727;50.068;14.452;2023-11-21T05:45:59;5.13;;;2.20;;
43114;SDS011;28727;50.068;14.452;2023-11-21T05:48:31;6.93;;;2.03;;
43114;SDS011;28727;50.068;14.452;2023-11-21T05:51:04;5.50;;;2.30;;
43114;SDS011;28727;50.068;14.452;2023-11-21T05:53:37;5.38;;;2.45;;
43114;SDS011;28727;50.068;14.452;2023-11-21T05:56:09;6.22;;;2.28;;
43114;SDS011;28727;50.068;14.452;2023-11-21T05:58:41;4.63;;;2.08;;
43114;SDS011;28727;50.068;14.452;2023-11-21T06:01:13;3.95;;;1.92;;
43114;SDS011;28727;50.068;14.452;2023-11-21T06:03:45;4.10;;;1.90;;
43114;SDS011;28727;50.068;14.452;2023-11-21T06:06:17;3.88;;;2.10;;
43114;SDS011;28727;50.068;14.452;2023-11-21T06:08:50;4.93;;;2.22;;
43114;SDS011;28727;50.068;14.452;2023-11-21T06:11:23;6.45;;;2.42;;
43114;SDS011;28727;50.068;14.452;2023-11-21T06:13:55;3.97;;;1.77;;
43114;SDS011;28727;50.068;14.452;2023-11-21T06:16:27;4.93;;;2.00;;
43114;SDS011;28727;50.068;14.452;2023-11-21T06:19:00;4.95;;;1.90;;
43114;SDS011;28727;50.068;14.452;2023-11-21T06:21:32;4.57;;;1.83;;
43114;SDS011;28727;50.068;14.452;2023-11-21T06:24:07;4.63;;;2.00;;
43114;SDS011;28727;50.068;14.452;2023-11-21T06:26:39;4.35;;;2.08;;
43114;SDS011;28727;50.068;14.452;2023-11-21T06:29:10;2.70;;;1.70;;
43114;SDS011;28727;50.068;14.452;2023-11-21T06:31:42;4.18;;;2.10;;
43114;SDS011;28727;50.068;14.452;2023-11-21T06:34:15;4.90;;;1.70;;
43114;SDS011;28727;50.068;14.452;2023-11-21T06:36:47;4.75;;;1.90;;
43114;SDS011;28727;50.068;14.452;2023-11-21T06:39:19;3.63;;;1.65;;
43114;SDS011;28727;50.068;14.452;2023-11-21T06:41:54;3.40;;;1.90;;
43114;SDS011;28727;50.068;14.452;2023-11-21T06:44:25;4.90;;;2.17;;
43114;SDS011;28727;50.068;14.452;2023-11-21T06:46:57;5.55;;;2.00;;
43114;SDS011;28727;50.068;14.452;2023-11-21T06:49:29;4.68;;;1.90;;
43114;SDS011;28727;50.068;14.452;2023-11-21T06:52:03;7.45;;;2.70;;
43114;SDS011;28727;50.068;14.452;2023-11-21T06:54:37;4.47;;;2.50;;
43114;SDS011;28727;50.068;14.452;2023-11-21T06:57:09;7.30;;;2.40;;
43114;SDS011;28727;50.068;14.452;2023-11-21T06:59:41;3.55;;;2.10;;
43114;SDS011;28727;50.068;14.452;2023-11-21T07:02:13;5.45;;;2.45;;
43114;SDS011;28727;50.068;14.452;2023-11-21T07:04:46;6.00;;;1.98;;
43114;SDS011;28727;50.068;14.452;2023-11-21T07:07:18;5.57;;;2.38;;
43114;SDS011;28727;50.068;14.452;2023-11-21T07:09:50;6.60;;;2.33;;
43114;SDS011;28727;50.068;14.452;2023-11-21T07:12:23;9.02;;;2.70;;
43114;SDS011;28727;50.068;14.452;2023-11-21T07:14:57;9.77;;;2.70;;
43114;SDS011;28727;50.068;14.452;2023-11-21T07:17:30;6.38;;;2.50;;
43114;SDS011;28727;50.068;14.452;2023-11-21T07:20:03;7.45;;;2.30;;
43114;SDS011;28727;50.068;14.452;2023-11-21T07:22:35;6.78;;;2.35;;
43114;SDS011;28727;50.068;14.452;2023-11-21T07:25:07;10.25;;;3.60;;
43114;SDS011;28727;50.068;14.452;2023-11-21T07:27:41;5.27;;;2.43;;
43114;SDS011;28727;50.068;14.452;2023-11-21T07:32:47;5.07;;;2.60;;
43114;SDS011;28727;50.068;14.452;2023-11-21T07:35:19;6.43;;;2.60;;
43114;SDS011;28727;50.068;14.452;2023-11-21T07:37:51;6.75;;;2.47;;
43114;SDS011;28727;50.068;14.452;2023-11-21T07:40:23;5.95;;;2.97;;
43114;SDS011;28727;50.068;14.452;2023-11-21T07:42:55;6.78;;;2.90;;
43114;SDS011;28727;50.068;14.452;2023-11-21T07:45:28;7.10;;;2.45;;
43114;SDS011;28727;50.068;14.452;2023-11-21T07:48:00;5.47;;;2.72;;
43114;SDS011;28727;50.068;14.452;2023-11-21T07:50:34;7.55;;;2.60;;
43114;SDS011;28727;50.068;14.452;2023-11-21T07:53:06;8.13;;;2.83;;
43114;SDS011;28727;50.068;14.452;2023-11-21T07:55:38;4.88;;;2.35;;
43114;SDS011;28727;50.068;14.452;2023-11-21T07:58:10;4.50;;;2.30;;
43114;SDS011;28727;50.068;14.452;2023-11-21T08:00:44;3.58;;;2.00;;
43114;SDS011;28727;50.068;14.452;2023-11-21T08:03:16;5.55;;;2.28;;
43114;SDS011;28727;50.068;14.452;2023-11-21T08:05:48;5.15;;;2.60;;
43114;SDS011;28727;50.068;14.452;2023-11-21T08:08:20;8.70;;;2.15;;
43114;SDS011;28727;50.068;14.452;2023-11-21T08:10:52;6.13;;;2.28;;
43114;SDS011;28727;50.068;14.452;2023-11-21T08:13:28;4.60;;;2.25;;
43114;SDS011;28727;50.068;14.452;2023-11-21T08:16:02;5.22;;;2.45;;
43114;SDS011;28727;50.068;14.452;2023-11-21T08:18:36;7.68;;;2.40;;
43114;SDS011;28727;50.068;14.452;2023-11-21T08:21:08;5.75;;;2.40;;
43114;SDS011;28727;50.068;14.452;2023-11-21T08:23:40;4.22;;;2.00;;
43114;SDS011;28727;50.068;14.452;2023-11-21T08:26:12;5.80;;;2.70;;
43114;SDS011;28727;50.068;14.452;2023-11-21T08:28:44;5.80;;;2.30;;
43114;SDS011;28727;50.068;14.452;2023-11-21T08:31:23;8.88;;;2.63;;
43114;SDS011;28727;50.068;14.452;2023-11-21T08:33:55;5.05;;;2.05;;
43114;SDS011;28727;50.068;14.452;2023-11-21T08:36:27;4.15;;;1.90;;
43114;SDS011;28727;50.068;14.452;2023-11-21T08:38:59;5.88;;;2.28;;
43114;SDS011;28727;50.068;14.452;2023-11-21T08:41:31;7.18;;;2.45;;
43114;SDS011;28727;50.068;14.452;2023-11-21T08:44:03;5.30;;;2.42;;
43114;SDS011;28727;50.068;14.452;2023-11-21T08:46:38;5.32;;;2.30;;
43114;SDS011;28727;50.068;14.452;2023-11-21T08:49:14;3.80;;;2.25;;
43114;SDS011;28727;50.068;14.452;2023-11-21T08:51:46;4.70;;;2.45;;
43114;SDS011;28727;50.068;14.452;2023-11-21T08:54:18;5.00;;;2.05;;
43114;SDS011;28727;50.068;14.452;2023-11-21T08:56:54;4.18;;;2.30;;
43114;SDS011;28727;50.068;14.452;2023-11-21T08:59:26;10.85;;;2.65;;
43114;SDS011;28727;50.068;14.452;2023-11-21T09:01:58;6.07;;;2.47;;
43114;SDS011;28727;50.068;14.452;2023-11-21T09:04:30;7.25;;;2.70;;
43114;SDS011;28727;50.068;14.452;2023-11-21T09:07:02;5.22;;;2.35;;
43114;SDS011;28727;50.068;14.452;2023-11-21T09:09:34;6.03;;;2.38;;
43114;SDS011;28727;50.068;14.452;2023-11-21T09:12:06;3.45;;;2.20;;
43114;SDS011;28727;50.068;14.452;2023-11-21T09:14:38;6.65;;;2.17;;
43114;SDS011;28727;50.068;14.452;2023-11-21T09:17:10;4.38;;;2.55;;
43114;SDS011;28727;50.068;14.452;2023-11-21T09:19:44;7.77;;;2.23;;
43114;SDS011;28727;50.068;14.452;2023-11-21T09:22:21;5.65;;;2.38;;
43114;SDS011;28727;50.068;14.452;2023-11-21T09:24:53;5.80;;;2.65;;
43114;SDS011;28727;50.068;14.452;2023-11-21T09:27:25;7.10;;;3.35;;
43114;SDS011;28727;50.068;14.452;2023-11-21T09:29:59;5.82;;;2.67;;
43114;SDS011;28727;50.068;14.452;2023-11-21T09:32:31;6.13;;;2.90;;
43114;SDS011;28727;50.068;14.452;2023-11-21T09:35:06;5.53;;;2.70;;
43114;SDS011;28727;50.068;14.452;2023-11-21T09:37:41;6.97;;;2.97;;
43114;SDS011;28727;50.068;14.452;2023-11-21T09:40:15;6.35;;;2.90;;
43114;SDS011;28727;50.068;14.452;2023-11-21T09:42:55;9.55;;;2.72;;
43114;SDS011;28727;50.068;14.452;2023-11-21T09:45:28;11.18;;;3.03;;
43114;SDS011;28727;50.068;14.452;2023-11-21T09:48:05;5.70;;;2.70;;
43114;SDS011;28727;50.068;14.452;2023-11-21T09:50:40;5.68;;;2.63;;
43114;SDS011;28727;50.068;14.452;2023-11-21T09:53:16;5.57;;;2.60;;
43114;SDS011;28727;50.068;14.452;2023-11-21T09:55:52;6.38;;;2.60;;
43114;SDS011;28727;50.068;14.452;2023-11-21T09:58:25;7.18;;;2.60;;
43114;SDS011;28727;50.068;14.452;2023-11-21T10:00:58;5.25;;;2.78;;
43114;SDS011;28727;50.068;14.452;2023-11-21T10:03:37;4.40;;;2.65;;
43114;SDS011;28727;50.068;14.452;2023-11-21T10:06:10;8.38;;;3.20;;
43114;SDS011;28727;50.068;14.452;2023-11-21T10:08:46;7.53;;;3.13;;
43114;SDS011;28727;50.068;14.452;2023-11-21T10:11:26;7.75;;;3.40;;
43114;SDS011;28727;50.068;14.452;2023-11-21T10:13:59;8.93;;;3.70;;
43114;SDS011;28727;50.068;14.452;2023-11-21T10:16:33;10.25;;;3.60;;
43114;SDS011;28727;50.068;14.452;2023-11-21T10:19:06;8.52;;;3.60;;
43114;SDS011;28727;50.068;14.452;2023-11-21T10:21:42;5.60;;;2.70;;
43114;SDS011;28727;50.068;14.452;2023-11-21T10:24:14;7.35;;;3.05;;
43114;SDS011;28727;50.068;14.452;2023-11-21T10:26:47;6.70;;;2.92;;
43114;SDS011;28727;50.068;14.452;2023-11-21T10:29:24;7.13;;;2.85;;
43114;SDS011;28727;50.068;14.452;2023-11-21T10:31:58;8.50;;;2.70;;
43114;SDS011;28727;50.068;14.452;2023-11-21T10:34:31;6.50;;;2.88;;
43114;SDS011;28727;50.068;14.452;2023-11-21T10:37:13;7.97;;;2.65;;
43114;SDS011;28727;50.068;14.452;2023-11-21T10:39:48;5.13;;;2.83;;
43114;SDS011;28727;50.068;14.452;2023-11-21T10:42:21;7.82;;;2.78;;
43114;SDS011;28727;50.068;14.452;2023-11-21T10:44:56;5.80;;;3.20;;
43114;SDS011;28727;50.068;14.452;2023-11-21T10:47:28;4.57;;;3.17;;
43114;SDS011;28727;50.068;14.452;2023-11-21T10:50:03;8.70;;;3.47;;
43114;SDS011;28727;50.068;14.452;2023-11-21T10:52:36;7.50;;;3.30;;
43114;SDS011;28727;50.068;14.452;2023-11-21T10:55:17;7.20;;;3.53;;
43114;SDS011;28727;50.068;14.452;2023-11-21T10:57:53;6.93;;;3.45;;
43114;SDS011;28727;50.068;14.452;2023-11-21T11:00:26;8.38;;;3.28;;
43114;SDS011;28727;50.068;14.452;2023-11-21T11:02:59;8.20;;;3.28;;
43114;SDS011;28727;50.068;14.452;2023-11-21T11:05:32;9.45;;;3.15;;
43114;SDS011;28727;50.068;14.452;2023-11-21T11:08:05;6.78;;;2.88;;
43114;SDS011;28727;50.068;14.452;2023-11-21T11:10:39;7.97;;;3.10;;
43114;SDS011;28727;50.068;14.452;2023-11-21T11:13:11;9.02;;;3.25;;
43114;SDS011;28727;50.068;14.452;2023-11-21T11:15:47;5.80;;;3.75;;
43114;SDS011;28727;50.068;14.452;2023-11-21T11:18:19;10.60;;;3.30;;
43114;SDS011;28727;50.068;14.452;2023-11-21T11:20:55;7.63;;;3.25;;
43114;SDS011;28727;50.068;14.452;2023-11-21T11:26:30;4.97;;;2.75;;
43114;SDS011;28727;50.068;14.452;2023-11-21T11:32:16;7.07;;;2.50;;
43114;SDS011;28727;50.068;14.452;2023-11-21T11:35:10;5.60;;;2.40;;
43114;SDS011;28727;50.068;14.452;2023-11-21T11:37:55;6.18;;;2.58;;
43114;SDS011;28727;50.068;14.452;2023-11-21T11:40:46;6.32;;;2.58;;
43114;SDS011;28727;50.068;14.452;2023-11-21T11:43:26;7.35;;;2.55;;
43114;SDS011;28727;50.068;14.452;2023-11-21T11:46:02;5.50;;;2.65;;
43114;SDS011;28727;50.068;14.452;2023-11-21T11:48:39;4.63;;;2.90;;
43114;SDS011;28727;50.068;14.452;2023-11-21T11:51:12;5.43;;;2.35;;
43114;SDS011;28727;50.068;14.452;2023-11-21T11:53:53;5.07;;;2.47;;
43114;SDS011;28727;50.068;14.452;2023-11-21T11:56:28;6.22;;;2.60;;
43114;SDS011;28727;50.068;14.452;2023-11-21T11:59:03;5.88;;;2.92;;
43114;SDS011;28727;50.068;14.452;2023-11-21T12:01:36;4.32;;;2.35;;
43114;SDS011;28727;50.068;14.452;2023-11-21T12:06:46;5.70;;;2.33;;
43114;SDS011;28727;50.068;14.452;2023-11-21T12:11:53;4.57;;;2.17;;
43114;SDS011;28727;50.068;14.452;2023-11-21T12:14:28;9.30;;;2.78;;
43114;SDS011;28727;50.068;14.452;2023-11-21T12:17:02;5.85;;;2.35;;
43114;SDS011;28727;50.068;14.452;2023-11-21T12:19:36;6.70;;;3.42;;
43114;SDS011;28727;50.068;14.452;2023-11-21T12:22:09;9.32;;;3.13;;
43114;SDS011;28727;50.068;14.452;2023-11-21T12:24:41;6.72;;;2.65;;
43114;SDS011;28727;50.068;14.452;2023-11-21T12:27:13;7.03;;;2.70;;
43114;SDS011;28727;50.068;14.452;2023-11-21T12:29:45;4.82;;;2.08;;
43114;SDS011;28727;50.068;14.452;2023-11-21T12:32:19;7.25;;;2.20;;
43114;SDS011;28727;50.068;14.452;2023-11-21T12:34:52;5.75;;;2.40;;
43114;SDS011;28727;50.068;14.452;2023-11-21T12:37:27;9.55;;;3.10;;
43114;SDS011;28727;50.068;14.452;2023-11-21T12:40:01;7.18;;;2.80;;
43114;SDS011;28727;50.068;14.452;2023-11-21T12:42:34;8.00;;;3.80;;
43114;SDS011;28727;50.068;14.452;2023-11-21T12:45:28;7.38;;;2.97;;
43114;SDS011;28727;50.068;14.452;2023-11-21T12:48:00;6.60;;;2.83;;
43114;SDS011;28727;50.068;14.452;2023-11-21T12:50:40;7.60;;;3.10;;
43114;SDS011;28727;50.068;14.452;2023-11-21T12:53:13;7.10;;;3.05;;
43114;SDS011;28727;50.068;14.452;2023-11-21T12:55:45;4.93;;;3.03;;
43114;SDS011;28727;50.068;14.452;2023-11-21T12:58:21;5.78;;;3.42;;
43114;SDS011;28727;50.068;14.452;2023-11-21T13:00:56;5.13;;;3.47;;
43114;SDS011;28727;50.068;14.452;2023-11-21T13:03:32;6.63;;;3.67;;
43114;SDS011;28727;50.068;14.452;2023-11-21T13:06:07;6.00;;;3.60;;
43114;SDS011;28727;50.068;14.452;2023-11-21T13:08:39;8.95;;;3.45;;
43114;SDS011;28727;50.068;14.452;2023-11-21T13:11:11;11.52;;;3.88;;
43114;SDS011;28727;50.068;14.452;2023-11-21T13:13:45;12.80;;;3.20;;
43114;SDS011;28727;50.068;14.452;2023-11-21T13:16:17;6.95;;;3.33;;
43114;SDS011;28727;50.068;14.452;2023-11-21T13:18:52;6.45;;;3.60;;
43114;SDS011;28727;50.068;14.452;2023-11-21T13:21:24;7.40;;;3.63;;
43114;SDS011;28727;50.068;14.452;2023-11-21T13:23:56;5.55;;;3.22;;
43114;SDS011;28727;50.068;14.452;2023-11-21T13:26:27;6.53;;;3.70;;
43114;SDS011;28727;50.068;14.452;2023-11-21T13:28:59;7.03;;;3.53;;
43114;SDS011;28727;50.068;14.452;2023-11-21T13:31:31;9.57;;;3.53;;
43114;SDS011;28727;50.068;14.452;2023-11-21T13:34:04;7.55;;;3.60;;
43114;SDS011;28727;50.068;14.452;2023-11-21T13:36:40;7.38;;;3.53;;
43114;SDS011;28727;50.068;14.452;2023-11-21T13:39:13;6.68;;;3.75;;
43114;SDS011;28727;50.068;14.452;2023-11-21T13:41:48;6.32;;;3.83;;
43114;SDS011;28727;50.068;14.452;2023-11-21T13:44:26;6.28;;;3.58;;
43114;SDS011;28727;50.068;14.452;2023-11-21T13:47:00;6.75;;;3.83;;
43114;SDS011;28727;50.068;14.452;2023-11-21T13:49:32;6.75;;;3.65;;
43114;SDS011;28727;50.068;14.452;2023-11-21T13:52:07;7.50;;;3.75;;
43114;SDS011;28727;50.068;14.452;2023-11-21T13:57:14;11.00;;;4.68;;
43114;SDS011;28727;50.068;14.452;2023-11-21T13:59:46;5.70;;;3.88;;
43114;SDS011;28727;50.068;14.452;2023-11-21T14:02:18;7.50;;;4.20;;
43114;SDS011;28727;50.068;14.452;2023-11-21T14:04:51;8.40;;;4.40;;
43114;SDS011;28727;50.068;14.452;2023-11-21T14:07:27;10.05;;;4.75;;
43114;SDS011;28727;50.068;14.452;2023-11-21T14:10:19;8.40;;;4.97;;
43114;SDS011;28727;50.068;14.452;2023-11-21T14:12:55;10.15;;;5.05;;
43114;SDS011;28727;50.068;14.452;2023-11-21T14:15:27;11.77;;;4.90;;
43114;SDS011;28727;50.068;14.452;2023-11-21T14:18:00;11.25;;;5.18;;
43114;SDS011;28727;50.068;14.452;2023-11-21T14:20:37;13.23;;;5.85;;
43114;SDS011;28727;50.068;14.452;2023-11-21T14:23:11;9.73;;;5.15;;
43114;SDS011;28727;50.068;14.452;2023-11-21T14:25:43;8.48;;;5.30;;
43114;SDS011;28727;50.068;14.452;2023-11-21T14:28:15;7.95;;;5.40;;
43114;SDS011;28727;50.068;14.452;2023-11-21T14:30:47;9.77;;;5.20;;
43114;SDS011;28727;50.068;14.452;2023-11-21T14:33:19;6.45;;;5.00;;
43114;SDS011;28727;50.068;14.452;2023-11-21T14:35:51;8.10;;;5.22;;
43114;SDS011;28727;50.068;14.452;2023-11-21T14:38:23;8.77;;;6.03;;
43114;SDS011;28727;50.068;14.452;2023-11-21T14:40:54;7.53;;;4.88;;
43114;SDS011;28727;50.068;14.452;2023-11-21T14:43:28;7.43;;;4.15;;
43114;SDS011;28727;50.068;14.452;2023-11-21T14:46:01;7.15;;;3.67;;
43114;SDS011;28727;50.068;14.452;2023-11-21T14:48:41;7.55;;;4.05;;
43114;SDS011;28727;50.068;14.452;2023-11-21T14:51:19;8.00;;;4.78;;
43114;SDS011;28727;50.068;14.452;2023-11-21T14:53:59;10.52;;;5.20;;
43114;SDS011;28727;50.068;14.452;2023-11-21T14:56:41;8.00;;;4.50;;
43114;SDS011;28727;50.068;14.452;2023-11-21T14:59:16;8.10;;;5.30;;
43114;SDS011;28727;50.068;14.452;2023-11-21T15:01:48;9.40;;;4.82;;
43114;SDS011;28727;50.068;14.452;2023-11-21T15:04:27;7.78;;;5.18;;
43114;SDS011;28727;50.068;14.452;2023-11-21T15:07:10;8.23;;;5.28;;
43114;SDS011;28727;50.068;14.452;2023-11-21T15:12:16;8.90;;;5.32;;
43114;SDS011;28727;50.068;14.452;2023-11-21T15:14:51;6.75;;;4.70;;
43114;SDS011;28727;50.068;14.452;2023-11-21T15:17:26;9.68;;;5.28;;
43114;SDS011;28727;50.068;14.452;2023-11-21T15:20:00;6.35;;;4.82;;
43114;SDS011;28727;50.068;14.452;2023-11-21T15:22:32;6.78;;;4.40;;
43114;SDS011;28727;50.068;14.452;2023-11-21T15:25:04;8.43;;;4.90;;
43114;SDS011;28727;50.068;14.452;2023-11-21T15:27:41;6.47;;;3.80;;
43114;SDS011;28727;50.068;14.452;2023-11-21T15:30:13;6.88;;;3.58;;
43114;SDS011;28727;50.068;14.452;2023-11-21T15:32:50;5.40;;;3.70;;
43114;SDS011;28727;50.068;14.452;2023-11-21T15:35:24;5.10;;;3.60;;
43114;SDS011;28727;50.068;14.452;2023-11-21T15:37:56;5.70;;;3.72;;
43114;SDS011;28727;50.068;14.452;2023-11-21T15:40:30;4.23;;;2.70;;